Time;durP1;ratioP1;P1;durP2;ratioP2;P2;SDS_P1;SDS_P2;PMS_P1;PMS_P2;Temp;Humidity;BMP_temperature;BMP_pressure;BME280_temperature;BME280_humidity;BME280_pressure;Samples;Min_cycle;Max_cycle;Signal;HPM_P1;HPM_P2
2022/07/09 00:00:12;;;;;;;28.13;25.10;;;;;;;13.49;100.00;99802.00;2081962;28;20264;-75
2022/07/09 00:01:14;;;;;;;27.27;24.48;;;;;;;13.49;100.00;99799.31;2074295;28;20197;-75
2022/07/09 00:02:16;;;;;;;27.95;25.13;;;;;;;13.48;100.00;99804.97;2082316;28;20191;-75
2022/07/09 00:03:17;;;;;;;28.42;24.58;;;;;;;13.48;100.00;99803.09;2082645;28;20195;-75
2022/07/09 00:04:18;;;;;;;27.00;24.20;;;;;;;13.49;100.00;99793.94;2082327;28;20199;-75
2022/07/09 00:05:19;;;;;;;28.48;24.58;;;;;;;13.48;100.00;99802.31;2082495;28;20309;-75
2022/07/09 00:06:21;;;;;;;26.83;23.93;;;;;;;13.49;100.00;99793.94;2081749;28;20219;-75
2022/07/09 00:07:26;;;;;;;27.88;25.05;;;;;;;13.49;100.00;99799.31;2074119;28;20199;-75
2022/07/09 00:08:29;;;;;;;29.67;25.05;;;;;;;13.49;100.00;99796.63;2074698;28;20188;-75
2022/07/09 00:09:30;;;;;;;33.00;24.65;;;;;;;13.53;100.00;99805.66;2082393;28;20250;-75
2022/07/09 00:10:34;;;;;;;28.93;25.67;;;;;;;13.55;100.00;99808.88;2082246;28;20202;-75
2022/07/09 00:11:34;;;;;;;27.38;24.63;;;;;;;13.55;100.00;99800.00;2082191;28;20306;-75
2022/07/09 00:12:36;;;;;;;27.50;24.80;;;;;;;13.54;100.00;99793.84;2082248;28;20195;-75
2022/07/09 00:13:37;;;;;;;27.52;24.63;;;;;;;13.58;100.00;99797.53;2074069;28;20232;-75
2022/07/09 00:14:39;;;;;;;26.50;24.03;;;;;;;13.60;100.00;99804.47;2082591;28;20188;-74
2022/07/09 00:15:42;;;;;;;33.30;25.15;;;;;;;13.58;100.00;99788.69;2082234;28;20669;-75
2022/07/09 00:16:46;;;;;;;29.90;24.48;;;;;;;13.58;100.00;99791.38;2082350;28;20235;-75
2022/07/09 00:17:48;;;;;;;28.23;25.23;;;;;;;13.56;100.00;99789.00;2083109;28;20199;-75
2022/07/09 00:18:49;;;;;;;28.63;24.27;;;;;;;13.54;100.00;99791.16;2082860;28;20307;-75
2022/07/09 00:19:50;;;;;;;26.63;23.90;;;;;;;13.58;100.00;99796.75;2082910;28;20188;-75
2022/07/09 00:20:51;;;;;;;26.92;24.30;;;;;;;13.62;100.00;99791.56;2082891;28;20687;-75
2022/07/09 00:21:55;;;;;;;26.27;23.50;;;;;;;13.63;100.00;99795.84;2082540;28;20600;-74
2022/07/09 00:22:59;;;;;;;27.08;24.40;;;;;;;13.63;100.00;99793.16;2082188;28;20200;-74
2022/07/09 00:24:01;;;;;;;25.98;23.40;;;;;;;13.62;100.00;99792.34;2082127;28;20635;-74
2022/07/09 00:25:01;;;;;;;26.85;23.98;;;;;;;13.61;100.00;99785.41;2082140;28;20211;-75
2022/07/09 00:26:04;;;;;;;27.73;24.83;;;;;;;13.62;100.00;99794.25;2082456;28;20196;-74
2022/07/09 00:27:05;;;;;;;26.92;24.35;;;;;;;13.61;100.00;99792.66;2082757;28;20239;-74
2022/07/09 00:28:07;;;;;;;27.10;24.43;;;;;;;13.60;100.00;99794.56;2082130;28;20696;-74
2022/07/09 00:29:09;;;;;;;26.73;24.05;;;;;;;13.61;100.00;99793.44;2073968;28;20239;-74
2022/07/09 00:30:12;;;;;;;28.63;24.90;;;;;;;13.57;100.00;99790.59;2082115;28;20194;-75
2022/07/09 00:31:12;;;;;;;26.40;23.80;;;;;;;13.53;100.00;99789.56;2082428;28;20188;-74
2022/07/09 00:32:14;;;;;;;27.87;24.50;;;;;;;13.55;100.00;99790.09;2082768;28;20195;-75
2022/07/09 00:33:15;;;;;;;26.50;23.70;;;;;;;13.56;100.00;99788.22;2082032;28;20286;-75
2022/07/09 00:34:16;;;;;;;26.83;24.23;;;;;;;13.53;100.00;99789.56;2082244;28;20191;-75
2022/07/09 00:35:17;;;;;;;31.92;24.40;;;;;;;13.52;100.00;99782.63;2082020;28;20203;-75
2022/07/09 00:36:20;;;;;;;32.60;24.87;;;;;;;13.54;100.00;99783.13;2073424;28;20224;-75
2022/07/09 00:37:22;;;;;;;26.90;24.33;;;;;;;13.57;100.00;99795.94;2074221;28;20231;-75
2022/07/09 00:38:24;;;;;;;27.50;24.03;;;;;;;13.58;100.00;99786.81;2073098;28;20203;-75
2022/07/09 00:39:24;;;;;;;30.42;25.35;;;;;;;13.55;100.00;99783.91;2082237;28;20697;-75
2022/07/09 00:40:26;;;;;;;26.93;24.30;;;;;;;13.61;100.00;99789.97;2082846;28;20545;-74
2022/07/09 00:41:28;;;;;;;29.35;24.38;;;;;;;13.58;100.00;99786.81;2082650;28;20226;-75
2022/07/09 00:42:31;;;;;;;30.98;25.20;;;;;;;13.57;100.00;99781.75;2082005;28;20262;-75
2022/07/09 00:43:32;;;;;;;27.23;24.40;;;;;;;13.54;100.00;99788.47;2082177;28;20183;-74
2022/07/09 00:44:35;;;;;;;28.20;25.40;;;;;;;13.55;100.00;99787.41;2081571;28;20203;-74
2022/07/09 00:45:36;;;;;;;29.27;24.77;;;;;;;13.54;100.00;99785.81;2073999;28;20204;-75
2022/07/09 00:46:37;;;;;;;27.23;24.43;;;;;;;13.57;100.00;99790.59;2082017;28;20246;-75
2022/07/09 00:47:38;;;;;;;27.02;24.35;;;;;;;13.55;100.00;99792.78;2082629;28;20347;-74
2022/07/09 00:48:42;;;;;;;30.27;25.20;;;;;;;13.53;100.00;99789.56;2082779;28;20659;-75
2022/07/09 00:49:43;;;;;;;28.00;25.20;;;;;;;13.54;100.00;99791.16;2082601;28;20216;-75
2022/07/09 00:50:45;;;;;;;27.33;24.40;;;;;;;13.50;100.00;99790.19;2081949;28;20198;-74
2022/07/09 00:51:47;;;;;;;28.10;25.52;;;;;;;13.51;100.00;99788.28;2081559;28;20231;-75
2022/07/09 00:52:49;;;;;;;27.33;24.30;;;;;;;13.49;100.00;99785.91;2082782;28;20176;-75
2022/07/09 00:53:50;;;;;;;27.80;24.88;;;;;;;13.47;100.00;99788.09;2082541;28;20191;-74
2022/07/09 00:54:51;;;;;;;26.90;24.27;;;;;;;13.51;100.00;99791.75;2082744;28;20274;-75
2022/07/09 00:55:53;;;;;;;28.08;25.13;;;;;;;13.49;100.00;99791.28;2082624;28;20223;-74
2022/07/09 00:57:00;;;;;;;27.90;25.10;;;;;;;13.49;100.00;99791.28;2082554;28;20271;-75
2022/07/09 00:58:01;;;;;;;27.73;24.70;;;;;;;13.48;100.00;99787.00;2081744;28;20278;-75
2022/07/09 00:59:07;;;;;;;27.95;24.95;;;;;;;13.51;100.00;99790.97;2081980;28;20709;-74
2022/07/09 01:00:09;;;;;;;27.65;24.67;;;;;;;13.50;100.00;99789.38;2082817;28;20184;-74
2022/07/09 01:01:10;;;;;;;27.15;24.70;;;;;;;13.47;100.00;99787.31;2081822;28;20204;-74
2022/07/09 01:02:11;;;;;;;28.30;25.17;;;;;;;13.46;100.00;99783.00;2073743;28;20274;-75
2022/07/09 01:03:13;;;;;;;28.07;25.30;;;;;;;13.45;100.00;99792.94;2082316;28;20192;-75
2022/07/09 01:04:14;;;;;;;28.33;25.73;;;;;;;13.45;100.00;99789.47;2082517;28;20725;-74
2022/07/09 01:05:16;;;;;;;28.03;25.57;;;;;;;13.45;100.00;99795.63;2082494;28;20560;-75
2022/07/09 01:06:17;;;;;;;27.92;25.08;;;;;;;13.44;100.00;99790.56;2082045;28;20223;-75
2022/07/09 01:07:19;;;;;;;27.33;24.55;;;;;;;13.43;100.00;99792.44;2082681;28;20203;-75
2022/07/09 01:08:20;;;;;;;30.45;25.33;;;;;;;13.45;100.00;99790.25;2081843;28;20246;-75
2022/07/09 01:09:22;;;;;;;35.45;24.73;;;;;;;13.45;100.00;99787.59;2082165;28;20183;-74
2022/07/09 01:10:23;;;;;;;28.40;24.10;;;;;;;13.45;100.00;99784.91;2082672;28;20222;-74
2022/07/09 01:11:25;;;;;;;29.20;25.57;;;;;;;13.44;100.00;99794.03;2081867;28;20188;-74
2022/07/09 01:12:28;;;;;;;26.80;24.10;;;;;;;13.45;100.00;99787.59;2081876;28;20925;-75
2022/07/09 01:13:33;;;;;;;27.73;24.63;;;;;;;13.43;100.00;99789.78;2082566;28;20718;-75
2022/07/09 01:14:35;;;;;;;27.88;25.08;;;;;;;13.46;100.00;99791.06;2082714;28;20176;-75
2022/07/09 01:15:37;;;;;;;30.00;25.53;;;;;;;13.44;100.00;99786.00;2082432;28;20215;-75
2022/07/09 01:16:37;;;;;;;26.45;24.05;;;;;;;13.41;100.00;99780.44;2082374;28;20724;-75
2022/07/09 01:17:51;;;;;;;27.17;24.37;;;;;;;13.40;100.00;99785.00;2081265;28;20618;-75
2022/07/09 01:18:54;;;;;;;27.80;25.00;;;;;;;13.43;100.00;99788.97;2081997;28;20171;-74
2022/07/09 01:19:55;;;;;;;29.77;25.55;;;;;;;13.39;100.00;99780.75;2082405;28;20294;-74
2022/07/09 01:20:59;;;;;;;27.20;24.70;;;;;;;13.40;100.00;99785.00;2081892;28;20274;-76
2022/07/09 01:22:00;;;;;;;27.77;24.88;;;;;;;13.40;100.00;99784.22;2082428;28;20183;-74
2022/07/09 01:23:01;;;;;;;26.70;24.43;;;;;;;13.41;100.00;99781.25;2081711;28;20213;-75
2022/07/09 01:24:03;;;;;;;27.40;24.73;;;;;;;13.40;100.00;99779.66;2081800;28;20203;-75
2022/07/09 01:25:09;;;;;;;28.02;25.05;;;;;;;13.41;100.00;99778.56;2081859;28;20611;-75
2022/07/09 01:26:12;;;;;;;27.63;24.67;;;;;;;13.42;100.00;99785.50;2073904;28;20689;-75
2022/07/09 01:27:14;;;;;;;27.65;24.77;;;;;;;13.42;100.00;99779.34;2073646;28;20722;-75
2022/07/09 01:28:16;;;;;;;28.05;25.17;;;;;;;13.42;100.00;99777.47;2081901;28;20334;-75
2022/07/09 01:29:17;;;;;;;27.85;24.92;;;;;;;13.40;100.00;99776.19;2082445;28;20288;-75
2022/07/09 01:30:26;;;;;;;27.00;24.20;;;;;;;13.42;100.00;99774.78;2082329;28;20201;-75
2022/07/09 01:31:27;;;;;;;27.35;24.52;;;;;;;13.47;100.00;99779.28;2081637;28;20199;-75
2022/07/09 01:32:30;;;;;;;26.75;24.25;;;;;;;13.44;100.00;99775.28;2081618;28;20540;-74
2022/07/09 01:33:33;;;;;;;26.48;23.92;;;;;;;13.43;100.00;99772.91;2073695;28;20336;-75
2022/07/09 01:34:40;;;;;;;28.13;25.13;;;;;;;13.44;100.00;99775.28;2081776;28;20262;-75
2022/07/09 01:35:41;;;;;;;28.15;25.23;;;;;;;13.43;100.00;99767.53;2082382;28;20176;-75
2022/07/09 01:36:44;;;;;;;27.27;24.30;;;;;;;13.44;100.00;99769.91;2081300;28;20628;-75
2022/07/09 01:37:44;;;;;;;27.00;24.13;;;;;;;13.43;100.00;99767.53;2073534;28;20303;-75
2022/07/09 01:38:46;;;;;;;27.93;24.70;;;;;;;13.41;100.00;99767.03;2073444;28;20682;-75
2022/07/09 01:39:51;;;;;;;27.10;24.23;;;;;;;13.43;100.00;99767.53;2081611;28;20200;-75
2022/07/09 01:40:53;;;;;;;26.83;24.20;;;;;;;13.42;100.00;99766.75;2081719;28;20676;-75
2022/07/09 01:41:55;;;;;;;26.55;24.02;;;;;;;13.44;100.00;99764.56;2082486;28;20283;-75
2022/07/09 01:42:57;;;;;;;27.52;24.77;;;;;;;13.46;100.00;99762.34;2081488;28;20673;-74
2022/07/09 01:43:58;;;;;;;28.00;24.83;;;;;;;13.43;100.00;99762.97;2081630;28;20223;-75
2022/07/09 01:44:59;;;;;;;27.07;24.73;;;;;;;13.39;100.00;99767.34;2082278;28;20188;-75
2022/07/09 01:46:01;;;;;;;28.70;24.55;;;;;;;13.39;100.00;99761.97;2082262;28;20226;-75
2022/07/09 01:47:05;;;;;;;29.73;25.25;;;;;;;13.37;100.00;99766.03;2082150;28;20191;-75
2022/07/09 01:48:07;;;;;;;27.98;24.77;;;;;;;13.40;100.00;99768.94;2081870;28;20297;-75
2022/07/09 01:49:09;;;;;;;29.15;25.40;;;;;;;13.39;100.00;99766.56;2081656;28;20617;-75
2022/07/09 01:50:10;;;;;;;26.83;24.23;;;;;;;13.39;100.00;99766.56;2082011;28;20199;-75
2022/07/09 01:51:13;;;;;;;28.10;24.67;;;;;;;13.37;100.00;99758.00;2081031;28;20201;-75
2022/07/09 01:52:15;;;;;;;28.23;25.35;;;;;;;13.39;100.00;99758.50;2081569;28;20598;-75
2022/07/09 01:53:16;;;;;;;27.45;24.60;;;;;;;13.37;100.00;99758.78;2081659;28;20196;-74
2022/07/09 01:54:17;;;;;;;29.85;25.10;;;;;;;13.39;100.00;99756.63;2081518;28;20196;-75
2022/07/09 01:55:21;;;;;;;33.03;24.95;;;;;;;13.36;100.00;99757.19;2081598;28;20554;-75
2022/07/09 01:56:21;;;;;;;28.35;25.38;;;;;;;13.34;100.00;99754.03;2082191;28;20252;-75
2022/07/09 01:57:23;;;;;;;28.70;25.73;;;;;;;13.33;100.00;99754.31;2081457;28;20250;-75
2022/07/09 01:58:24;;;;;;;33.17;25.90;;;;;;;13.31;100.00;99753.84;2081553;28;20681;-75
2022/07/09 01:59:26;;;;;;;28.98;25.90;;;;;;;13.27;100.00;99754.41;2082255;28;20207;-75
2022/07/09 02:00:29;;;;;;;31.65;26.00;;;;;;;13.25;100.00;99751.25;2082177;28;20643;-75
2022/07/09 02:01:31;;;;;;;29.42;26.45;;;;;;;13.25;100.00;99747.78;2081790;28;20204;-75
2022/07/09 02:02:32;;;;;;;30.40;25.92;;;;;;;13.27;100.00;99753.63;2081618;28;20187;-75
2022/07/09 02:03:34;;;;;;;32.90;26.15;;;;;;;13.24;100.00;99743.50;2081477;28;20204;-75
2022/07/09 02:04:35;;;;;;;33.95;26.50;;;;;;;13.23;100.00;99744.59;2081766;28;20267;-75
2022/07/09 02:05:36;;;;;;;28.97;25.80;;;;;;;13.26;100.00;99750.16;2080963;28;20338;-75
2022/07/09 02:06:37;;;;;;;28.10;25.08;;;;;;;13.26;100.00;99752.81;2081516;28;20250;-75
2022/07/09 02:07:42;;;;;;;34.08;25.90;;;;;;;13.27;100.00;99749.06;2082073;28;20199;-75
2022/07/09 02:08:45;;;;;;;29.60;26.13;;;;;;;13.28;100.00;99749.84;2082249;28;20253;-75
2022/07/09 02:09:51;;;;;;;29.10;26.20;;;;;;;13.26;100.00;99747.47;2082150;28;20267;-75
2022/07/09 02:10:54;;;;;;;28.45;25.65;;;;;;;13.25;100.00;99743.19;2082159;28;20274;-75
2022/07/09 02:11:56;;;;;;;29.10;26.02;;;;;;;13.23;100.00;99744.59;2082653;28;20194;-74
2022/07/09 02:12:56;;;;;;;29.90;25.83;;;;;;;13.25;100.00;99751.25;2082140;28;20187;-75
2022/07/09 02:13:58;;;;;;;28.33;24.80;;;;;;;13.24;100.00;99751.53;2082181;28;20188;-74
2022/07/09 02:15:00;;;;;;;28.05;24.95;;;;;;;13.22;100.00;99743.00;2082617;28;20198;-75
2022/07/09 02:16:03;;;;;;;28.40;25.40;;;;;;;13.22;100.00;99746.47;2082072;28;20207;-74
2022/07/09 02:17:05;;;;;;;28.13;25.30;;;;;;;13.21;100.00;99744.91;2081334;28;20223;-74
2022/07/09 02:18:07;;;;;;;31.85;25.92;;;;;;;13.23;100.00;99741.91;2081345;28;20215;-75
2022/07/09 02:19:07;;;;;;;31.27;26.13;;;;;;;13.26;100.00;99747.47;2081346;28;20726;-75
2022/07/09 02:20:10;;;;;;;32.80;26.03;;;;;;;13.26;100.00;99744.00;2081737;28;20607;-75
2022/07/09 02:21:11;;;;;;;29.45;26.55;;;;;;;13.25;100.00;99743.19;2081628;28;20677;-74
2022/07/09 02:22:14;;;;;;;29.05;26.05;;;;;;;13.25;100.00;99737.06;2082075;28;20195;-75
2022/07/09 02:23:16;;;;;;;34.28;26.75;;;;;;;13.27;100.00;99742.91;2082087;28;20203;-75
2022/07/09 02:24:18;;;;;;;29.05;25.83;;;;;;;13.27;100.00;99741.00;2082073;28;20184;-75
2022/07/09 02:25:18;;;;;;;35.33;26.45;;;;;;;13.28;100.00;99736.44;2081347;28;20659;-74
2022/07/09 02:26:20;;;;;;;30.47;27.00;;;;;;;13.25;100.00;99735.16;2073162;28;20552;-75
2022/07/09 02:27:21;;;;;;;29.38;26.35;;;;;;;13.27;100.00;99737.53;2081611;28;20630;-75
2022/07/09 02:28:22;;;;;;;32.20;26.60;;;;;;;13.27;100.00;99729.50;2081706;28;20195;-75
2022/07/09 02:29:24;;;;;;;31.35;27.42;;;;;;;13.30;100.00;99731.59;2081355;28;20191;-75
2022/07/09 02:30:27;;;;;;;31.48;26.02;;;;;;;13.30;100.00;99736.97;2081735;28;20192;-75
2022/07/09 02:31:27;;;;;;;31.08;25.60;;;;;;;13.29;100.00;99732.66;2082064;28;20191;-74
2022/07/09 02:32:29;;;;;;;32.90;26.40;;;;;;;13.27;100.00;99732.97;2082270;28;20226;-74
2022/07/09 02:33:31;;;;;;;29.48;26.38;;;;;;;13.28;100.00;99731.09;2082220;28;20226;-75
2022/07/09 02:34:33;;;;;;;33.28;27.30;;;;;;;13.28;100.00;99728.41;2082155;28;20242;-74
2022/07/09 02:35:35;;;;;;;29.63;26.63;;;;;;;13.26;100.00;99720.66;2082043;28;20199;-75
2022/07/09 02:36:37;;;;;;;29.70;26.53;;;;;;;13.26;100.00;99733.28;2081685;28;20233;-75
2022/07/09 02:37:38;;;;;;;34.00;26.00;;;;;;;13.26;100.00;99727.91;2081600;28;20446;-75
2022/07/09 02:38:41;;;;;;;32.22;26.60;;;;;;;13.28;100.00;99731.09;2081517;28;20180;-75
2022/07/09 02:39:41;;;;;;;32.83;26.92;;;;;;;13.29;100.00;99738.03;2082032;28;20188;-74
2022/07/09 02:40:43;;;;;;;31.73;26.87;;;;;;;13.27;100.00;99734.84;2081358;28;20279;-75
2022/07/09 02:41:44;;;;;;;34.58;26.65;;;;;;;13.25;100.00;99740.53;2073515;28;20307;-75
2022/07/09 02:42:45;;;;;;;37.83;27.17;;;;;;;13.27;100.00;99726.81;2073230;28;20197;-75
2022/07/09 02:43:48;;;;;;;28.48;25.45;;;;;;;13.28;100.00;99723.03;2081464;28;20192;-75
2022/07/09 02:44:50;;;;;;;32.10;26.37;;;;;;;13.27;100.00;99732.19;2081945;28;20676;-75
2022/07/09 02:45:55;;;;;;;30.55;26.70;;;;;;;13.27;100.00;99722.25;2081978;28;20218;-75
2022/07/09 02:46:56;;;;;;;35.17;26.48;;;;;;;13.26;100.00;99731.38;2081014;28;20207;-75
2022/07/09 02:47:57;;;;;;;30.67;26.70;;;;;;;13.24;100.00;99736.25;2081347;28;20291;-75
2022/07/09 02:48:58;;;;;;;34.13;27.13;;;;;;;13.24;100.00;99740.81;2082004;28;20654;-75
2022/07/09 02:49:59;;;;;;;29.30;26.25;;;;;;;13.23;100.00;99731.19;2081956;28;20199;-75
2022/07/09 02:51:03;;;;;;;31.48;27.20;;;;;;;13.25;100.00;99729.81;2081555;28;20246;-75
2022/07/09 02:52:04;;;;;;;37.58;27.48;;;;;;;13.26;100.00;99738.63;2081308;28;20554;-75
2022/07/09 02:53:06;;;;;;;34.63;27.25;;;;;;;13.23;100.00;99731.19;2081470;28;20230;-75
2022/07/09 02:54:08;;;;;;;29.58;26.55;;;;;;;13.21;100.00;99744.09;2082016;28;20301;-74
2022/07/09 02:55:10;;;;;;;31.55;27.63;;;;;;;13.21;100.00;99736.84;2081880;28;20188;-74
2022/07/09 02:56:11;;;;;;;31.67;26.10;;;;;;;13.22;100.00;99733.09;2081943;28;20195;-75
2022/07/09 02:57:13;;;;;;;30.70;27.38;;;;;;;13.21;100.00;99736.06;2080767;28;20204;-75
2022/07/09 02:58:13;;;;;;;31.20;26.67;;;;;;;13.20;100.00;99737.94;2081214;28;20236;-75
2022/07/09 02:59:15;;;;;;;35.80;27.90;;;;;;;13.21;100.00;99734.19;2081904;28;20192;-74
2022/07/09 03:00:16;;;;;;;30.48;26.52;;;;;;;13.20;100.00;99739.81;2081958;28;20191;-75
2022/07/09 03:01:17;;;;;;;31.23;26.57;;;;;;;13.19;100.00;99738.19;2082074;28;20184;-75
2022/07/09 03:02:20;;;;;;;31.80;26.60;;;;;;;13.22;100.00;99730.41;2083425;28;20684;-75
2022/07/09 03:03:23;;;;;;;30.15;27.00;;;;;;;13.23;100.00;99733.88;2083713;28;20187;-75
2022/07/09 03:04:25;;;;;;;35.97;26.63;;;;;;;13.21;100.00;99736.84;2082426;28;20238;-75
2022/07/09 03:05:28;;;;;;;31.02;27.02;;;;;;;13.28;100.00;99733.75;2082911;28;20238;-75
2022/07/09 03:06:28;;;;;;;32.28;27.23;;;;;;;13.28;100.00;99741.81;2082344;28;20215;-75
2022/07/09 03:07:30;;;;;;;31.70;26.77;;;;;;;13.27;100.00;99737.53;2082809;28;20191;-75
2022/07/09 03:08:31;;;;;;;30.85;26.27;;;;;;;13.25;100.00;99734.38;2083001;28;20306;-75
2022/07/09 03:09:34;;;;;;;34.83;27.05;;;;;;;13.23;100.00;99737.34;2082878;28;20188;-75
2022/07/09 03:10:35;;;;;;;28.73;25.63;;;;;;;13.23;100.00;99737.34;2083637;28;20219;-75
2022/07/09 03:11:37;;;;;;;29.33;26.27;;;;;;;13.29;100.00;99735.34;2083494;28;20183;-75
2022/07/09 03:12:40;;;;;;;34.97;26.77;;;;;;;13.29;100.00;99738.84;2083349;28;20432;-75
2022/07/09 03:13:41;;;;;;;30.23;26.80;;;;;;;13.32;100.00;99742.03;2083578;28;20266;-75
2022/07/09 03:14:42;;;;;;;32.00;27.25;;;;;;;13.33;100.00;99736.34;2083342;28;20738;-75
2022/07/09 03:15:43;;;;;;;34.27;26.83;;;;;;;13.33;100.00;99739.03;2083394;28;20544;-75
2022/07/09 03:16:44;;;;;;;29.40;26.20;;;;;;;13.28;100.00;99723.03;2083344;28;20269;-75
2022/07/09 03:17:46;;;;;;;28.47;25.57;;;;;;;13.33;100.00;99740.94;2083417;28;20180;-75
2022/07/09 03:18:49;;;;;;;34.17;27.00;;;;;;;13.33;100.00;99738.25;2083343;28;20661;-75
2022/07/09 03:19:52;;;;;;;29.23;26.35;;;;;;;13.35;100.00;99739.53;2083389;28;20187;-75
2022/07/09 03:20:53;;;;;;;29.60;25.90;;;;;;;13.37;100.00;99736.56;2082790;28;20214;-75
2022/07/09 03:21:54;;;;;;;32.90;26.90;;;;;;;13.36;100.00;99743.00;2083277;28;20724;-75
2022/07/09 03:22:56;;;;;;;32.13;27.30;;;;;;;13.35;100.00;99738.75;2083579;28;20192;-75
2022/07/09 03:23:59;;;;;;;30.13;27.13;;;;;;;13.36;100.00;99729.59;2083288;28;20195;-75
2022/07/09 03:25:02;;;;;;;33.28;27.48;;;;;;;13.38;100.00;99732.78;2083321;28;20687;-75
2022/07/09 03:26:05;;;;;;;33.72;27.38;;;;;;;13.37;100.00;99733.88;2083475;28;20268;-74
2022/07/09 03:27:08;;;;;;;31.38;28.08;;;;;;;13.36;100.00;99734.97;2083298;28;20561;-75
2022/07/09 03:28:10;;;;;;;34.42;28.00;;;;;;;13.37;100.00;99731.97;2083184;28;20211;-74
2022/07/09 03:29:10;;;;;;;31.02;27.20;;;;;;;13.35;100.00;99728.81;2082543;28;20191;-75
2022/07/09 03:30:12;;;;;;;36.43;27.43;;;;;;;13.40;100.00;99734.09;2082656;28;20187;-74
2022/07/09 03:31:13;;;;;;;34.33;28.52;;;;;;;13.44;100.00;99734.28;2083444;28;20191;-75
2022/07/09 03:32:14;;;;;;;36.23;29.20;;;;;;;13.44;100.00;99726.22;2083248;28;20188;-75
2022/07/09 03:33:15;;;;;;;34.63;28.13;;;;;;;13.48;100.00;99736.06;2082825;28;20234;-74
2022/07/09 03:34:17;;;;;;;32.13;28.67;;;;;;;13.48;100.00;99728.03;2074690;28;20204;-75
2022/07/09 03:35:18;;;;;;;33.95;28.52;;;;;;;13.50;100.00;99733.09;2082610;28;20203;-75
2022/07/09 03:36:22;;;;;;;32.07;28.83;;;;;;;13.49;100.00;99721.56;2082016;28;20240;-75
2022/07/09 03:37:23;;;;;;;43.40;29.70;;;;;;;13.52;100.00;99730.91;2082901;28;20559;-75
2022/07/09 03:38:25;;;;;;;31.70;28.53;;;;;;;13.54;100.00;99726.03;2082443;28;20192;-75
2022/07/09 03:39:25;;;;;;;32.97;28.52;;;;;;;13.54;100.00;99721.44;2082650;28;20187;-74
2022/07/09 03:40:31;;;;;;;33.77;28.40;;;;;;;13.60;100.00;99726.72;2083242;28;20658;-75
2022/07/09 03:41:32;;;;;;;33.80;29.13;;;;;;;13.61;100.00;99728.31;2083288;28;20195;-74
2022/07/09 03:42:34;;;;;;;32.20;28.63;;;;;;;13.55;100.00;99728.44;2082206;28;20208;-75
2022/07/09 03:43:35;;;;;;;34.88;29.27;;;;;;;13.57;100.00;99728.91;2082605;28;20188;-75
2022/07/09 03:44:37;;;;;;;36.75;28.30;;;;;;;13.54;100.00;99726.81;2083248;28;20184;-75
2022/07/09 03:45:38;;;;;;;35.97;27.95;;;;;;;13.54;100.00;99726.03;2083167;28;20195;-75
2022/07/09 03:46:41;;;;;;;32.43;28.30;;;;;;;13.51;100.00;99727.41;2082596;28;20195;-75
2022/07/09 03:47:42;;;;;;;30.77;27.55;;;;;;;13.52;100.00;99729.00;2082805;28;20513;-75
2022/07/09 03:48:44;;;;;;;30.53;27.33;;;;;;;13.55;100.00;99727.59;2082696;28;20286;-75
2022/07/09 03:49:45;;;;;;;32.20;28.65;;;;;;;13.56;100.00;99724.66;2074285;28;20201;-75
2022/07/09 03:50:47;;;;;;;31.13;27.93;;;;;;;13.60;100.00;99729.41;2074315;28;20216;-75
2022/07/09 03:51:48;;;;;;;39.15;29.58;;;;;;;13.63;100.00;99729.59;2073994;28;20224;-74
2022/07/09 03:52:49;;;;;;;35.53;27.50;;;;;;;13.62;100.00;99727.22;2082478;28;20188;-75
2022/07/09 03:53:51;;;;;;;31.95;28.10;;;;;;;13.69;100.00;99722.25;2082671;28;20242;-75
2022/07/09 03:54:53;;;;;;;34.47;27.70;;;;;;;13.68;100.00;99726.03;2082360;28;20192;-75
2022/07/09 03:55:55;;;;;;;31.90;28.58;;;;;;;13.65;100.00;99726.63;2082362;28;20279;-74
2022/07/09 03:56:57;;;;;;;34.15;27.73;;;;;;;13.66;100.00;99720.97;2074319;28;20621;-74
2022/07/09 03:57:57;;;;;;;34.17;27.65;;;;;;;13.64;100.00;99719.66;2082282;28;20614;-75
2022/07/09 03:58:59;;;;;;;37.73;27.80;;;;;;;13.64;100.00;99719.66;2083093;28;20188;-75
2022/07/09 04:00:00;;;;;;;34.15;27.85;;;;;;;13.70;100.00;99723.81;2083013;28;20282;-74
2022/07/09 04:01:01;;;;;;;30.37;26.63;;;;;;;13.70;100.00;99719.25;2082991;28;20190;-74
2022/07/09 04:02:03;;;;;;;30.13;27.13;;;;;;;13.71;100.00;99720.06;2082953;28;20307;-74
2022/07/09 04:03:07;;;;;;;29.95;26.75;;;;;;;13.68;100.00;99720.66;2083004;28;20212;-75
2022/07/09 04:04:08;;;;;;;33.50;26.92;;;;;;;13.70;100.00;99724.63;2083199;28;20226;-75
2022/07/09 04:05:09;;;;;;;30.33;27.23;;;;;;;13.70;100.00;99729.19;2082974;28;20188;-75
2022/07/09 04:06:10;;;;;;;37.05;27.00;;;;;;;13.70;100.00;99718.47;2081742;28;20250;-75
2022/07/09 04:07:12;;;;;;;30.10;26.67;;;;;;;13.71;100.00;99725.41;2074089;28;20200;-75
2022/07/09 04:08:13;;;;;;;31.63;26.50;;;;;;;13.73;100.00;99732.09;2082331;28;20640;-74
2022/07/09 04:09:15;;;;;;;30.58;27.50;;;;;;;13.73;100.00;99728.63;2083038;28;20195;-75
2022/07/09 04:10:16;;;;;;;30.25;26.83;;;;;;;13.73;100.00;99733.97;2082286;28;20196;-74
2022/07/09 04:11:19;;;;;;;30.08;26.75;;;;;;;13.75;100.00;99732.56;2082361;28;20200;-74
2022/07/09 04:12:20;;;;;;;31.48;27.02;;;;;;;13.74;100.00;99727.50;2082929;28;20552;-74
2022/07/09 04:13:22;;;;;;;38.13;27.73;;;;;;;13.76;100.00;99726.13;2082933;28;20188;-75
2022/07/09 04:14:22;;;;;;;33.67;27.70;;;;;;;13.77;100.00;99732.28;2082254;28;20200;-75
2022/07/09 04:15:24;;;;;;;30.30;27.17;;;;;;;13.81;100.00;99728.69;2082340;28;20188;-74
2022/07/09 04:16:25;;;;;;;30.30;27.13;;;;;;;13.80;100.00;99735.13;2082893;28;20220;-74
2022/07/09 04:17:27;;;;;;;32.27;25.67;;;;;;;13.77;100.00;99734.94;2081824;28;20211;-75
2022/07/09 04:18:27;;;;;;;29.63;26.30;;;;;;;13.77;100.00;99726.91;2082260;28;20249;-75
2022/07/09 04:19:30;;;;;;;31.02;27.25;;;;;;;13.72;100.00;99727.78;2081819;28;20200;-74
2022/07/09 04:20:31;;;;;;;30.98;26.90;;;;;;;13.72;100.00;99732.34;2082263;28;20214;-74
2022/07/09 04:21:32;;;;;;;30.13;26.63;;;;;;;13.70;100.00;99726.50;2082461;28;20223;-74
2022/07/09 04:22:43;;;;;;;32.03;26.95;;;;;;;13.69;100.00;99731.09;2082846;28;20187;-74
2022/07/09 04:23:43;;;;;;;37.15;27.40;;;;;;;13.70;100.00;99727.31;2083120;28;20195;-75
2022/07/09 04:24:45;;;;;;;31.67;26.03;;;;;;;13.74;100.00;99725.63;2082171;28;20227;-74
2022/07/09 04:25:50;;;;;;;29.52;25.40;;;;;;;13.73;100.00;99726.72;2074159;28;20196;-74
2022/07/09 04:26:53;;;;;;;30.77;26.33;;;;;;;13.76;100.00;99725.31;2082349;28;20184;-74
2022/07/09 04:27:54;;;;;;;28.88;25.30;;;;;;;13.77;100.00;99722.34;2082835;28;20192;-74
2022/07/09 04:28:55;;;;;;;29.13;26.13;;;;;;;13.81;100.00;99725.19;2081953;28;20732;-75
2022/07/09 04:29:57;;;;;;;29.63;26.40;;;;;;;13.80;100.00;99720.94;2082236;28;20195;-74
2022/07/09 04:30:59;;;;;;;32.05;26.67;;;;;;;13.78;100.00;99715.06;2082776;28;20188;-74
2022/07/09 04:32:03;;;;;;;30.90;25.65;;;;;;;13.78;100.00;99723.13;2082992;28;20191;-74
2022/07/09 04:33:04;;;;;;;28.95;26.00;;;;;;;13.76;100.00;99726.13;2082734;28;20662;-74
2022/07/09 04:34:05;;;;;;;35.25;27.27;;;;;;;13.80;100.00;99724.41;2082041;28;20244;-74
2022/07/09 04:35:08;;;;;;;36.80;26.93;;;;;;;13.80;100.00;99727.09;2082043;28;20258;-74
2022/07/09 04:36:10;;;;;;;31.58;26.65;;;;;;;13.74;100.00;99720.25;2073492;28;20459;-74
2022/07/09 04:37:12;;;;;;;30.27;25.90;;;;;;;13.75;100.00;99713.00;2082186;28;20196;-74
2022/07/09 04:38:13;;;;;;;32.05;25.73;;;;;;;13.77;100.00;99713.50;2082756;28;20647;-74
2022/07/09 04:39:19;;;;;;;29.33;26.20;;;;;;;13.79;100.00;99716.66;2082059;28;20200;-74
2022/07/09 04:40:22;;;;;;;29.67;26.27;;;;;;;13.77;100.00;99718.84;2082446;28;20202;-74
2022/07/09 04:41:24;;;;;;;30.07;25.37;;;;;;;13.78;100.00;99715.88;2083021;28;20704;-75